Terminal Aerodrome Forecast
Issued by NWS

Home | Current Version | Previous Version | Text Only | Print | Product List | Glossary On
Versions: 1 2 3 4 5 6 7 8 9 10 11 12
000
FTUS44 KLZK 270520
TAFLIT
TAF
KLIT 270520Z 2706/2806 12006KT P6SM SCT050 SCT250
      TEMPO 2709/2713 5SM BR
     FM271400 VRB04KT P6SM VCTS SCT040CB BKN100 PROB30 2718/2724 5SM
      -TSRA=

USA.gov is the U.S. government's official web portal to all federal, state and local government web resources and services.